sensor_id;sensor_type;location;lat;lon;timestamp;pressure;altitude;pressure_sealevel;temperature
12430;BMP280;6279;42.192;24.326;2022-07-30T00:01:39;98944.81;;;24.14
12430;BMP280;6279;42.192;24.326;2022-07-30T00:04:05;98952.25;;;24.12
12430;BMP280;6279;42.192;24.326;2022-07-30T00:06:30;98943.47;;;24.11
12430;BMP280;6279;42.192;24.326;2022-07-30T00:08:56;98949.84;;;24.10
12430;BMP280;6279;42.192;24.326;2022-07-30T00:11:23;98945.88;;;24.13
12430;BMP280;6279;42.192;24.326;2022-07-30T00:13:49;98947.00;;;24.17
12430;BMP280;6279;42.192;24.326;2022-07-30T00:16:14;98936.84;;;24.14
12430;BMP280;6279;42.192;24.326;2022-07-30T00:18:39;98937.38;;;24.11
12430;BMP280;6279;42.192;24.326;2022-07-30T00:21:05;98944.78;;;24.09
12430;BMP280;6279;42.192;24.326;2022-07-30T00:23:30;98937.47;;;23.95
12430;BMP280;6279;42.192;24.326;2022-07-30T00:25:57;98934.94;;;23.78
12430;BMP280;6279;42.192;24.326;2022-07-30T00:28:22;98941.91;;;23.84
12430;BMP280;6279;42.192;24.326;2022-07-30T00:30:48;98930.66;;;23.77
12430;BMP280;6279;42.192;24.326;2022-07-30T00:33:13;98938.53;;;23.68
12430;BMP280;6279;42.192;24.326;2022-07-30T00:35:38;98938.50;;;23.63
12430;BMP280;6279;42.192;24.326;2022-07-30T00:38:04;98932.19;;;23.69
12430;BMP280;6279;42.192;24.326;2022-07-30T00:40:29;98930.53;;;23.63
12430;BMP280;6279;42.192;24.326;2022-07-30T00:42:55;98931.16;;;23.49
12430;BMP280;6279;42.192;24.326;2022-07-30T00:45:20;98935.06;;;23.41
12430;BMP280;6279;42.192;24.326;2022-07-30T00:47:46;98941.50;;;23.45
12430;BMP280;6279;42.192;24.326;2022-07-30T00:50:13;98935.00;;;23.36
12430;BMP280;6279;42.192;24.326;2022-07-30T00:52:39;98928.91;;;23.36
12430;BMP280;6279;42.192;24.326;2022-07-30T00:55:07;98925.38;;;23.30
12430;BMP280;6279;42.192;24.326;2022-07-30T00:57:33;98918.97;;;23.27
12430;BMP280;6279;42.192;24.326;2022-07-30T00:59:58;98919.56;;;23.33
12430;BMP280;6279;42.192;24.326;2022-07-30T01:02:24;98916.22;;;23.22
12430;BMP280;6279;42.192;24.326;2022-07-30T01:04:49;98919.38;;;23.19
12430;BMP280;6279;42.192;24.326;2022-07-30T01:07:15;98914.44;;;23.06
12430;BMP280;6279;42.192;24.326;2022-07-30T01:09:41;98925.69;;;23.13
12430;BMP280;6279;42.192;24.326;2022-07-30T01:12:06;98925.13;;;23.11
12430;BMP280;6279;42.192;24.326;2022-07-30T01:14:34;98924.16;;;22.96
12430;BMP280;6279;42.192;24.326;2022-07-30T01:17:00;98921.25;;;22.97
12430;BMP280;6279;42.192;24.326;2022-07-30T01:19:38;98918.69;;;22.86
12430;BMP280;6279;42.192;24.326;2022-07-30T01:28:17;98918.88;;;22.80
12430;BMP280;6279;42.192;24.326;2022-07-30T01:30:44;98922.19;;;22.70
12430;BMP280;6279;42.192;24.326;2022-07-30T01:33:15;98926.28;;;22.78
12430;BMP280;6279;42.192;24.326;2022-07-30T01:35:44;98924.69;;;22.77
12430;BMP280;6279;42.192;24.326;2022-07-30T01:38:11;98927.41;;;22.82
12430;BMP280;6279;42.192;24.326;2022-07-30T01:40:38;98932.88;;;22.75
12430;BMP280;6279;42.192;24.326;2022-07-30T01:43:05;98945.59;;;22.73
12430;BMP280;6279;42.192;24.326;2022-07-30T01:45:33;98924.13;;;22.75
12430;BMP280;6279;42.192;24.326;2022-07-30T01:47:59;98929.03;;;22.66
12430;BMP280;6279;42.192;24.326;2022-07-30T01:50:27;98917.53;;;22.61
12430;BMP280;6279;42.192;24.326;2022-07-30T01:52:55;98925.81;;;22.48
12430;BMP280;6279;42.192;24.326;2022-07-30T01:55:24;98919.66;;;22.43
12430;BMP280;6279;42.192;24.326;2022-07-30T01:57:52;98917.88;;;22.48
12430;BMP280;6279;42.192;24.326;2022-07-30T02:00:21;98916.53;;;22.46
12430;BMP280;6279;42.192;24.326;2022-07-30T02:02:47;98915.09;;;22.39
12430;BMP280;6279;42.192;24.326;2022-07-30T02:05:12;98920.31;;;22.34
12430;BMP280;6279;42.192;24.326;2022-07-30T02:10:33;98925.72;;;22.22
12430;BMP280;6279;42.192;24.326;2022-07-30T02:12:59;98908.53;;;22.25
12430;BMP280;6279;42.192;24.326;2022-07-30T02:15:32;98913.34;;;22.28
12430;BMP280;6279;42.192;24.326;2022-07-30T02:20:36;98922.81;;;22.24
12430;BMP280;6279;42.192;24.326;2022-07-30T02:23:05;98929.16;;;22.23
12430;BMP280;6279;42.192;24.326;2022-07-30T02:25:32;98928.28;;;22.18
12430;BMP280;6279;42.192;24.326;2022-07-30T02:28:02;98931.88;;;22.12
12430;BMP280;6279;42.192;24.326;2022-07-30T02:30:31;98925.19;;;21.93
12430;BMP280;6279;42.192;24.326;2022-07-30T02:33:01;98927.50;;;21.90
12430;BMP280;6279;42.192;24.326;2022-07-30T02:35:28;98920.69;;;21.94
12430;BMP280;6279;42.192;24.326;2022-07-30T02:37:54;98922.03;;;21.80
12430;BMP280;6279;42.192;24.326;2022-07-30T02:40:22;98924.78;;;21.69
12430;BMP280;6279;42.192;24.326;2022-07-30T02:42:49;98925.16;;;21.77
12430;BMP280;6279;42.192;24.326;2022-07-30T02:45:16;98922.63;;;21.82
12430;BMP280;6279;42.192;24.326;2022-07-30T02:47:44;98915.13;;;21.79
12430;BMP280;6279;42.192;24.326;2022-07-30T02:50:11;98911.38;;;21.75
12430;BMP280;6279;42.192;24.326;2022-07-30T02:52:38;98911.59;;;21.74
12430;BMP280;6279;42.192;24.326;2022-07-30T02:55:06;98908.97;;;21.74
12430;BMP280;6279;42.192;24.326;2022-07-30T02:57:33;98915.53;;;21.71
12430;BMP280;6279;42.192;24.326;2022-07-30T02:59:59;98912.34;;;21.69
12430;BMP280;6279;42.192;24.326;2022-07-30T03:02:25;98908.31;;;21.67
12430;BMP280;6279;42.192;24.326;2022-07-30T03:04:52;98912.25;;;21.64
12430;BMP280;6279;42.192;24.326;2022-07-30T03:07:19;98906.63;;;21.61
12430;BMP280;6279;42.192;24.326;2022-07-30T03:09:45;98899.66;;;21.71
12430;BMP280;6279;42.192;24.326;2022-07-30T03:12:11;98903.28;;;21.65
12430;BMP280;6279;42.192;24.326;2022-07-30T03:14:38;98902.22;;;21.66
12430;BMP280;6279;42.192;24.326;2022-07-30T03:17:05;98905.50;;;21.73
12430;BMP280;6279;42.192;24.326;2022-07-30T03:19:32;98915.63;;;21.76
12430;BMP280;6279;42.192;24.326;2022-07-30T03:21:59;98913.38;;;21.68
12430;BMP280;6279;42.192;24.326;2022-07-30T03:24:27;98916.50;;;21.65
12430;BMP280;6279;42.192;24.326;2022-07-30T03:26:54;98925.28;;;21.54
12430;BMP280;6279;42.192;24.326;2022-07-30T03:29:22;98923.03;;;21.47
12430;BMP280;6279;42.192;24.326;2022-07-30T03:31:49;98926.84;;;21.39
12430;BMP280;6279;42.192;24.326;2022-07-30T03:34:14;98929.31;;;21.30
12430;BMP280;6279;42.192;24.326;2022-07-30T03:36:41;98923.78;;;21.31
12430;BMP280;6279;42.192;24.326;2022-07-30T03:39:08;98926.78;;;21.34
12430;BMP280;6279;42.192;24.326;2022-07-30T03:41:35;98934.56;;;21.41
12430;BMP280;6279;42.192;24.326;2022-07-30T03:44:01;98927.19;;;21.43
12430;BMP280;6279;42.192;24.326;2022-07-30T03:46:28;98930.38;;;21.45
12430;BMP280;6279;42.192;24.326;2022-07-30T03:48:54;98931.53;;;21.49
12430;BMP280;6279;42.192;24.326;2022-07-30T03:51:20;98926.41;;;21.58
12430;BMP280;6279;42.192;24.326;2022-07-30T03:53:46;98922.44;;;21.72
12430;BMP280;6279;42.192;24.326;2022-07-30T03:56:13;98927.94;;;21.82
12430;BMP280;6279;42.192;24.326;2022-07-30T03:58:39;98924.22;;;21.83
12430;BMP280;6279;42.192;24.326;2022-07-30T04:01:05;98924.06;;;21.89
12430;BMP280;6279;42.192;24.326;2022-07-30T04:03:32;98931.50;;;22.03
12430;BMP280;6279;42.192;24.326;2022-07-30T04:05:58;98930.22;;;22.22
12430;BMP280;6279;42.192;24.326;2022-07-30T04:08:24;98940.00;;;22.38
12430;BMP280;6279;42.192;24.326;2022-07-30T04:10:50;98931.94;;;22.49
12430;BMP280;6279;42.192;24.326;2022-07-30T04:13:16;98930.31;;;22.64
12430;BMP280;6279;42.192;24.326;2022-07-30T04:16:08;98941.72;;;22.81
12430;BMP280;6279;42.192;24.326;2022-07-30T04:18:42;98940.25;;;22.89
12430;BMP280;6279;42.192;24.326;2022-07-30T04:21:10;98949.38;;;22.98
12430;BMP280;6279;42.192;24.326;2022-07-30T04:23:39;98945.66;;;22.99
12430;BMP280;6279;42.192;24.326;2022-07-30T04:26:05;98948.50;;;23.14
12430;BMP280;6279;42.192;24.326;2022-07-30T04:28:31;98955.06;;;23.28
12430;BMP280;6279;42.192;24.326;2022-07-30T04:30:57;98944.50;;;23.32
12430;BMP280;6279;42.192;24.326;2022-07-30T04:33:22;98936.91;;;23.41
12430;BMP280;6279;42.192;24.326;2022-07-30T04:35:48;98943.19;;;23.56
12430;BMP280;6279;42.192;24.326;2022-07-30T04:38:13;98941.69;;;23.65
12430;BMP280;6279;42.192;24.326;2022-07-30T04:40:39;98950.88;;;23.78
12430;BMP280;6279;42.192;24.326;2022-07-30T04:43:06;98942.44;;;23.86
12430;BMP280;6279;42.192;24.326;2022-07-30T04:45:31;98941.50;;;23.97
12430;BMP280;6279;42.192;24.326;2022-07-30T04:47:57;98938.97;;;23.86
12430;BMP280;6279;42.192;24.326;2022-07-30T04:50:25;98941.75;;;23.70
12430;BMP280;6279;42.192;24.326;2022-07-30T04:52:53;98934.94;;;23.78
12430;BMP280;6279;42.192;24.326;2022-07-30T04:55:19;98928.00;;;24.03
12430;BMP280;6279;42.192;24.326;2022-07-30T04:57:48;98920.19;;;24.23
12430;BMP280;6279;42.192;24.326;2022-07-30T05:00:14;98923.06;;;24.93
12430;BMP280;6279;42.192;24.326;2022-07-30T05:02:41;98919.69;;;25.17
12430;BMP280;6279;42.192;24.326;2022-07-30T05:05:13;98916.44;;;25.85
12430;BMP280;6279;42.192;24.326;2022-07-30T05:07:39;98925.53;;;26.38
12430;BMP280;6279;42.192;24.326;2022-07-30T05:10:06;98921.47;;;26.84
12430;BMP280;6279;42.192;24.326;2022-07-30T05:12:37;98920.00;;;27.26
12430;BMP280;6279;42.192;24.326;2022-07-30T05:15:07;98925.81;;;27.32
12430;BMP280;6279;42.192;24.326;2022-07-30T05:17:33;98932.56;;;27.73
12430;BMP280;6279;42.192;24.326;2022-07-30T05:19:59;98935.50;;;27.76
12430;BMP280;6279;42.192;24.326;2022-07-30T05:22:24;98933.50;;;27.49
12430;BMP280;6279;42.192;24.326;2022-07-30T05:24:57;98932.97;;;27.47
12430;BMP280;6279;42.192;24.326;2022-07-30T05:27:22;98933.75;;;27.47
12430;BMP280;6279;42.192;24.326;2022-07-30T05:29:48;98932.38;;;28.02
12430;BMP280;6279;42.192;24.326;2022-07-30T05:32:13;98932.03;;;28.13
12430;BMP280;6279;42.192;24.326;2022-07-30T05:34:38;98929.81;;;28.53
12430;BMP280;6279;42.192;24.326;2022-07-30T05:37:04;98939.03;;;28.93
12430;BMP280;6279;42.192;24.326;2022-07-30T05:39:30;98933.66;;;28.98
12430;BMP280;6279;42.192;24.326;2022-07-30T05:41:56;98928.28;;;29.21
12430;BMP280;6279;42.192;24.326;2022-07-30T05:44:22;98927.22;;;29.40
12430;BMP280;6279;42.192;24.326;2022-07-30T05:46:47;98934.00;;;29.55
12430;BMP280;6279;42.192;24.326;2022-07-30T05:49:13;98932.84;;;29.79
12430;BMP280;6279;42.192;24.326;2022-07-30T05:51:40;98928.56;;;29.96
12430;BMP280;6279;42.192;24.326;2022-07-30T05:54:05;98930.47;;;30.14
12430;BMP280;6279;42.192;24.326;2022-07-30T05:56:31;98929.16;;;30.12
12430;BMP280;6279;42.192;24.326;2022-07-30T05:58:56;98924.88;;;30.42
12430;BMP280;6279;42.192;24.326;2022-07-30T06:01:21;98921.31;;;30.15
12430;BMP280;6279;42.192;24.326;2022-07-30T06:03:47;98920.47;;;30.51
12430;BMP280;6279;42.192;24.326;2022-07-30T06:06:12;98926.53;;;30.56
12430;BMP280;6279;42.192;24.326;2022-07-30T06:08:38;98925.34;;;30.62
12430;BMP280;6279;42.192;24.326;2022-07-30T06:11:03;98926.41;;;31.06
12430;BMP280;6279;42.192;24.326;2022-07-30T06:13:29;98924.28;;;31.42
12430;BMP280;6279;42.192;24.326;2022-07-30T06:15:54;98927.56;;;31.66
12430;BMP280;6279;42.192;24.326;2022-07-30T06:18:20;98928.06;;;31.41
12430;BMP280;6279;42.192;24.326;2022-07-30T06:20:45;98921.91;;;31.41
12430;BMP280;6279;42.192;24.326;2022-07-30T06:23:11;98923.50;;;31.55
12430;BMP280;6279;42.192;24.326;2022-07-30T06:25:36;98927.91;;;31.86
12430;BMP280;6279;42.192;24.326;2022-07-30T06:28:02;98929.41;;;31.78
12430;BMP280;6279;42.192;24.326;2022-07-30T06:30:27;98928.06;;;31.68
12430;BMP280;6279;42.192;24.326;2022-07-30T06:32:54;98923.25;;;31.65
12430;BMP280;6279;42.192;24.326;2022-07-30T06:35:19;98911.97;;;31.76
12430;BMP280;6279;42.192;24.326;2022-07-30T06:37:45;98909.78;;;32.13
12430;BMP280;6279;42.192;24.326;2022-07-30T06:40:10;98899.75;;;32.26
12430;BMP280;6279;42.192;24.326;2022-07-30T06:42:36;98899.91;;;32.30
12430;BMP280;6279;42.192;24.326;2022-07-30T06:45:02;98901.84;;;32.08
12430;BMP280;6279;42.192;24.326;2022-07-30T06:47:27;98895.47;;;32.25
12430;BMP280;6279;42.192;24.326;2022-07-30T06:49:56;98904.00;;;32.49
12430;BMP280;6279;42.192;24.326;2022-07-30T06:52:23;98900.81;;;32.47
12430;BMP280;6279;42.192;24.326;2022-07-30T06:54:49;98894.53;;;32.89
12430;BMP280;6279;42.192;24.326;2022-07-30T06:57:15;98890.34;;;33.05
12430;BMP280;6279;42.192;24.326;2022-07-30T06:59:40;98888.34;;;32.89
12430;BMP280;6279;42.192;24.326;2022-07-30T07:02:06;98884.13;;;32.96
12430;BMP280;6279;42.192;24.326;2022-07-30T07:04:31;98885.88;;;33.01
12430;BMP280;6279;42.192;24.326;2022-07-30T07:06:57;98887.97;;;33.04
12430;BMP280;6279;42.192;24.326;2022-07-30T07:09:22;98889.53;;;33.59
12430;BMP280;6279;42.192;24.326;2022-07-30T07:11:48;98885.75;;;34.10
12430;BMP280;6279;42.192;24.326;2022-07-30T07:14:13;98891.53;;;34.45
12430;BMP280;6279;42.192;24.326;2022-07-30T07:16:39;98886.22;;;33.71
12430;BMP280;6279;42.192;24.326;2022-07-30T07:19:04;98887.25;;;33.28
12430;BMP280;6279;42.192;24.326;2022-07-30T07:21:30;98889.72;;;33.63
12430;BMP280;6279;42.192;24.326;2022-07-30T07:23:55;98888.59;;;33.72
12430;BMP280;6279;42.192;24.326;2022-07-30T07:26:21;98888.56;;;33.55
12430;BMP280;6279;42.192;24.326;2022-07-30T07:28:46;98892.16;;;33.34
12430;BMP280;6279;42.192;24.326;2022-07-30T07:31:12;98887.00;;;34.21
12430;BMP280;6279;42.192;24.326;2022-07-30T07:33:37;98890.13;;;34.56
12430;BMP280;6279;42.192;24.326;2022-07-30T07:36:05;98887.00;;;34.83
12430;BMP280;6279;42.192;24.326;2022-07-30T07:38:30;98881.41;;;35.24
12430;BMP280;6279;42.192;24.326;2022-07-30T07:40:56;98884.69;;;34.64
12430;BMP280;6279;42.192;24.326;2022-07-30T07:43:22;98881.91;;;34.81
12430;BMP280;6279;42.192;24.326;2022-07-30T07:45:49;98865.13;;;35.61
12430;BMP280;6279;42.192;24.326;2022-07-30T07:48:15;98865.69;;;36.38
12430;BMP280;6279;42.192;24.326;2022-07-30T07:50:41;98865.38;;;36.40
12430;BMP280;6279;42.192;24.326;2022-07-30T07:53:06;98855.69;;;36.18
12430;BMP280;6279;42.192;24.326;2022-07-30T07:55:32;98857.31;;;37.10
12430;BMP280;6279;42.192;24.326;2022-07-30T07:57:57;98865.69;;;36.38
12430;BMP280;6279;42.192;24.326;2022-07-30T08:00:23;98870.78;;;35.88
12430;BMP280;6279;42.192;24.326;2022-07-30T08:02:48;98858.34;;;36.07
12430;BMP280;6279;42.192;24.326;2022-07-30T08:05:15;98859.97;;;36.51
12430;BMP280;6279;42.192;24.326;2022-07-30T08:07:41;98849.75;;;37.04
12430;BMP280;6279;42.192;24.326;2022-07-30T08:10:08;98858.56;;;37.12
12430;BMP280;6279;42.192;24.326;2022-07-30T08:12:35;98854.94;;;37.08
12430;BMP280;6279;42.192;24.326;2022-07-30T08:15:02;98852.41;;;37.62
12430;BMP280;6279;42.192;24.326;2022-07-30T08:17:27;98855.44;;;37.22
12430;BMP280;6279;42.192;24.326;2022-07-30T08:19:57;98847.88;;;38.05
12430;BMP280;6279;42.192;24.326;2022-07-30T08:22:22;98846.91;;;37.35
12430;BMP280;6279;42.192;24.326;2022-07-30T08:24:48;98850.16;;;37.64
12430;BMP280;6279;42.192;24.326;2022-07-30T08:27:13;98843.50;;;39.03
12430;BMP280;6279;42.192;24.326;2022-07-30T08:29:39;98844.97;;;39.31
12430;BMP280;6279;42.192;24.326;2022-07-30T08:32:04;98843.16;;;40.68
12430;BMP280;6279;42.192;24.326;2022-07-30T08:34:30;98833.28;;;40.61
12430;BMP280;6279;42.192;24.326;2022-07-30T08:36:55;98826.97;;;41.01
12430;BMP280;6279;42.192;24.326;2022-07-30T08:39:20;98836.56;;;39.21
12430;BMP280;6279;42.192;24.326;2022-07-30T08:41:46;98825.34;;;39.93
12430;BMP280;6279;42.192;24.326;2022-07-30T08:44:16;98828.94;;;41.54
12430;BMP280;6279;42.192;24.326;2022-07-30T08:46:42;98829.09;;;41.97
12430;BMP280;6279;42.192;24.326;2022-07-30T08:49:10;98823.16;;;41.31
12430;BMP280;6279;42.192;24.326;2022-07-30T08:51:37;98822.50;;;41.15
12430;BMP280;6279;42.192;24.326;2022-07-30T08:54:03;98820.69;;;41.80
12430;BMP280;6279;42.192;24.326;2022-07-30T08:56:31;98815.44;;;43.18
12430;BMP280;6279;42.192;24.326;2022-07-30T08:58:56;98812.50;;;44.92
12430;BMP280;6279;42.192;24.326;2022-07-30T09:01:23;98804.31;;;46.17
12430;BMP280;6279;42.192;24.326;2022-07-30T09:03:48;98808.84;;;42.37
12430;BMP280;6279;42.192;24.326;2022-07-30T09:06:14;98804.34;;;40.78
12430;BMP280;6279;42.192;24.326;2022-07-30T09:08:39;98802.31;;;41.23
12430;BMP280;6279;42.192;24.326;2022-07-30T09:11:05;98800.81;;;42.15
12430;BMP280;6279;42.192;24.326;2022-07-30T09:13:33;98804.88;;;42.70
12430;BMP280;6279;42.192;24.326;2022-07-30T09:16:00;98795.13;;;43.19
12430;BMP280;6279;42.192;24.326;2022-07-30T09:20:51;98801.88;;;44.29
12430;BMP280;6279;42.192;24.326;2022-07-30T09:23:17;98796.81;;;44.68
12430;BMP280;6279;42.192;24.326;2022-07-30T09:25:44;98789.69;;;45.39
12430;BMP280;6279;42.192;24.326;2022-07-30T09:28:10;98784.00;;;45.91
12430;BMP280;6279;42.192;24.326;2022-07-30T09:33:11;98772.13;;;46.14
12430;BMP280;6279;42.192;24.326;2022-07-30T09:35:37;98773.75;;;45.95
12430;BMP280;6279;42.192;24.326;2022-07-30T09:38:02;98775.22;;;45.18
12430;BMP280;6279;42.192;24.326;2022-07-30T09:40:29;98779.19;;;44.69
12430;BMP280;6279;42.192;24.326;2022-07-30T09:43:06;98759.91;;;45.28
12430;BMP280;6279;42.192;24.326;2022-07-30T09:45:33;98755.00;;;45.76
12430;BMP280;6279;42.192;24.326;2022-07-30T09:47:59;98753.97;;;45.46
12430;BMP280;6279;42.192;24.326;2022-07-30T09:50:24;98745.25;;;46.28
12430;BMP280;6279;42.192;24.326;2022-07-30T09:52:52;98743.81;;;46.10
12430;BMP280;6279;42.192;24.326;2022-07-30T09:55:32;98738.69;;;46.12
12430;BMP280;6279;42.192;24.326;2022-07-30T09:58:04;98735.63;;;45.02
12430;BMP280;6279;42.192;24.326;2022-07-30T10:00:31;98737.16;;;43.97
12430;BMP280;6279;42.192;24.326;2022-07-30T10:02:57;98728.91;;;45.20
12430;BMP280;6279;42.192;24.326;2022-07-30T10:05:25;98730.28;;;45.73
12430;BMP280;6279;42.192;24.326;2022-07-30T10:07:51;98721.66;;;46.34
12430;BMP280;6279;42.192;24.326;2022-07-30T10:10:28;98726.84;;;45.52
12430;BMP280;6279;42.192;24.326;2022-07-30T10:13:02;98710.91;;;45.97
12430;BMP280;6279;42.192;24.326;2022-07-30T10:15:31;98716.56;;;45.66
12430;BMP280;6279;42.192;24.326;2022-07-30T10:17:58;98709.38;;;44.77
12430;BMP280;6279;42.192;24.326;2022-07-30T10:20:24;98714.44;;;45.10
12430;BMP280;6279;42.192;24.326;2022-07-30T10:22:50;98719.59;;;45.88
12430;BMP280;6279;42.192;24.326;2022-07-30T10:25:18;98707.06;;;47.53
12430;BMP280;6279;42.192;24.326;2022-07-30T10:27:44;98698.16;;;47.42
12430;BMP280;6279;42.192;24.326;2022-07-30T10:30:10;98700.63;;;46.97
12430;BMP280;6279;42.192;24.326;2022-07-30T10:32:36;98700.59;;;46.14
12430;BMP280;6279;42.192;24.326;2022-07-30T10:35:03;98692.03;;;45.18
12430;BMP280;6279;42.192;24.326;2022-07-30T10:37:30;98697.53;;;43.71
12430;BMP280;6279;42.192;24.326;2022-07-30T10:43:37;98676.75;;;43.63
12430;BMP280;6279;42.192;24.326;2022-07-30T10:48:31;98683.66;;;40.37
12430;BMP280;6279;42.192;24.326;2022-07-30T10:50:57;98676.19;;;40.09
12430;BMP280;6279;42.192;24.326;2022-07-30T10:53:35;98671.72;;;40.45
12430;BMP280;6279;42.192;24.326;2022-07-30T10:56:18;98671.25;;;39.74
12430;BMP280;6279;42.192;24.326;2022-07-30T10:59:04;98667.03;;;38.68
12430;BMP280;6279;42.192;24.326;2022-07-30T11:04:17;98655.94;;;39.29
12430;BMP280;6279;42.192;24.326;2022-07-30T11:06:43;98655.06;;;38.87
12430;BMP280;6279;42.192;24.326;2022-07-30T11:09:37;98650.56;;;39.13
12430;BMP280;6279;42.192;24.326;2022-07-30T11:12:04;98647.28;;;39.23
12430;BMP280;6279;42.192;24.326;2022-07-30T11:17:18;98634.06;;;39.62
12430;BMP280;6279;42.192;24.326;2022-07-30T11:22:37;98627.16;;;39.28
12430;BMP280;6279;42.192;24.326;2022-07-30T11:27:47;98631.06;;;39.89
12430;BMP280;6279;42.192;24.326;2022-07-30T11:32:40;98631.91;;;40.41
12430;BMP280;6279;42.192;24.326;2022-07-30T11:35:32;98612.91;;;40.98
12430;BMP280;6279;42.192;24.326;2022-07-30T11:38:08;98615.19;;;41.61
12430;BMP280;6279;42.192;24.326;2022-07-30T11:40:37;98598.47;;;41.66
12430;BMP280;6279;42.192;24.326;2022-07-30T11:43:17;98612.13;;;40.98
12430;BMP280;6279;42.192;24.326;2022-07-30T11:48:37;98600.66;;;39.87
12430;BMP280;6279;42.192;24.326;2022-07-30T11:51:03;98599.00;;;40.05
12430;BMP280;6279;42.192;24.326;2022-07-30T11:53:29;98594.69;;;39.78
12430;BMP280;6279;42.192;24.326;2022-07-30T11:55:57;98587.03;;;38.69
12430;BMP280;6279;42.192;24.326;2022-07-30T11:58:32;98585.63;;;37.77
12430;BMP280;6279;42.192;24.326;2022-07-30T12:01:04;98589.69;;;36.87
12430;BMP280;6279;42.192;24.326;2022-07-30T12:03:31;98580.50;;;37.91
12430;BMP280;6279;42.192;24.326;2022-07-30T12:06:08;98572.94;;;38.30
12430;BMP280;6279;42.192;24.326;2022-07-30T12:08:41;98571.28;;;38.25
12430;BMP280;6279;42.192;24.326;2022-07-30T12:11:07;98552.25;;;38.78
12430;BMP280;6279;42.192;24.326;2022-07-30T12:13:33;98555.22;;;39.07
12430;BMP280;6279;42.192;24.326;2022-07-30T12:15:59;98564.56;;;38.19
12430;BMP280;6279;42.192;24.326;2022-07-30T12:18:27;98551.44;;;38.06
12430;BMP280;6279;42.192;24.326;2022-07-30T12:21:08;98546.28;;;38.35
12430;BMP280;6279;42.192;24.326;2022-07-30T12:23:36;98540.22;;;38.60
12430;BMP280;6279;42.192;24.326;2022-07-30T12:26:02;98538.41;;;38.45
12430;BMP280;6279;42.192;24.326;2022-07-30T12:28:30;98543.63;;;37.44
12430;BMP280;6279;42.192;24.326;2022-07-30T12:30:57;98539.34;;;37.43
12430;BMP280;6279;42.192;24.326;2022-07-30T12:33:23;98536.19;;;37.87
12430;BMP280;6279;42.192;24.326;2022-07-30T12:35:54;98537.63;;;37.66
12430;BMP280;6279;42.192;24.326;2022-07-30T12:38:21;98522.63;;;37.87
12430;BMP280;6279;42.192;24.326;2022-07-30T12:40:58;98518.75;;;38.03
12430;BMP280;6279;42.192;24.326;2022-07-30T12:43:53;98516.16;;;37.76
12430;BMP280;6279;42.192;24.326;2022-07-30T12:46:26;98515.97;;;37.24
12430;BMP280;6279;42.192;24.326;2022-07-30T12:48:59;98518.00;;;36.85
12430;BMP280;6279;42.192;24.326;2022-07-30T12:51:27;98510.91;;;36.68
12430;BMP280;6279;42.192;24.326;2022-07-30T12:53:54;98514.59;;;36.49
12430;BMP280;6279;42.192;24.326;2022-07-30T12:56:28;98512.44;;;35.69
12430;BMP280;6279;42.192;24.326;2022-07-30T12:58:56;98512.66;;;35.99
12430;BMP280;6279;42.192;24.326;2022-07-30T13:01:44;98509.72;;;35.80
12430;BMP280;6279;42.192;24.326;2022-07-30T13:04:11;98504.09;;;35.85
12430;BMP280;6279;42.192;24.326;2022-07-30T13:06:37;98483.78;;;35.91
12430;BMP280;6279;42.192;24.326;2022-07-30T13:09:05;98491.25;;;35.94
12430;BMP280;6279;42.192;24.326;2022-07-30T13:14:03;98470.38;;;36.72
12430;BMP280;6279;42.192;24.326;2022-07-30T13:16:31;98467.75;;;37.48
12430;BMP280;6279;42.192;24.326;2022-07-30T13:18:56;98456.66;;;38.01
12430;BMP280;6279;42.192;24.326;2022-07-30T13:21:22;98461.19;;;38.31
12430;BMP280;6279;42.192;24.326;2022-07-30T13:23:47;98449.63;;;37.36
12430;BMP280;6279;42.192;24.326;2022-07-30T13:26:12;98444.72;;;37.11
12430;BMP280;6279;42.192;24.326;2022-07-30T13:28:38;98441.38;;;37.48
12430;BMP280;6279;42.192;24.326;2022-07-30T13:31:04;98439.41;;;37.60
12430;BMP280;6279;42.192;24.326;2022-07-30T13:33:32;98434.31;;;37.44
12430;BMP280;6279;42.192;24.326;2022-07-30T13:35:57;98439.81;;;37.32
12430;BMP280;6279;42.192;24.326;2022-07-30T13:38:23;98428.13;;;37.28
12430;BMP280;6279;42.192;24.326;2022-07-30T13:40:49;98431.50;;;37.10
12430;BMP280;6279;42.192;24.326;2022-07-30T13:43:14;98429.34;;;37.15
12430;BMP280;6279;42.192;24.326;2022-07-30T13:45:40;98434.81;;;36.88
12430;BMP280;6279;42.192;24.326;2022-07-30T13:48:05;98435.38;;;36.40
12430;BMP280;6279;42.192;24.326;2022-07-30T13:50:31;98431.53;;;36.41
12430;BMP280;6279;42.192;24.326;2022-07-30T13:52:57;98422.72;;;36.44
12430;BMP280;6279;42.192;24.326;2022-07-30T13:55:23;98417.69;;;36.58
12430;BMP280;6279;42.192;24.326;2022-07-30T13:57:48;98428.91;;;36.18
12430;BMP280;6279;42.192;24.326;2022-07-30T14:00:16;98421.41;;;35.99
12430;BMP280;6279;42.192;24.326;2022-07-30T14:02:41;98413.84;;;35.93
12430;BMP280;6279;42.192;24.326;2022-07-30T14:05:07;98403.53;;;36.10
12430;BMP280;6279;42.192;24.326;2022-07-30T14:07:33;98397.97;;;36.30
12430;BMP280;6279;42.192;24.326;2022-07-30T14:09:59;98405.00;;;36.08
12430;BMP280;6279;42.192;24.326;2022-07-30T14:12:25;98396.13;;;35.45
12430;BMP280;6279;42.192;24.326;2022-07-30T14:14:50;98397.78;;;35.03
12430;BMP280;6279;42.192;24.326;2022-07-30T14:17:16;98386.03;;;34.87
12430;BMP280;6279;42.192;24.326;2022-07-30T14:19:41;98385.91;;;34.84
12430;BMP280;6279;42.192;24.326;2022-07-30T14:22:07;98390.16;;;34.84
12430;BMP280;6279;42.192;24.326;2022-07-30T14:24:32;98392.03;;;34.92
12430;BMP280;6279;42.192;24.326;2022-07-30T14:26:57;98396.88;;;34.99
12430;BMP280;6279;42.192;24.326;2022-07-30T14:29:24;98392.72;;;35.13
12430;BMP280;6279;42.192;24.326;2022-07-30T14:31:50;98381.88;;;35.36
12430;BMP280;6279;42.192;24.326;2022-07-30T14:34:15;98391.59;;;35.26
12430;BMP280;6279;42.192;24.326;2022-07-30T14:36:43;98383.47;;;35.26
12430;BMP280;6279;42.192;24.326;2022-07-30T14:39:08;98387.75;;;35.27
12430;BMP280;6279;42.192;24.326;2022-07-30T14:41:34;98396.75;;;35.19
12430;BMP280;6279;42.192;24.326;2022-07-30T14:44:01;98390.47;;;35.15
12430;BMP280;6279;42.192;24.326;2022-07-30T14:46:27;98388.66;;;35.19
12430;BMP280;6279;42.192;24.326;2022-07-30T14:48:52;98383.81;;;35.12
12430;BMP280;6279;42.192;24.326;2022-07-30T14:51:18;98372.22;;;35.24